Time;durP1;ratioP1;P1;durP2;ratioP2;P2;SDS_P1;SDS_P2;PMS_P1;PMS_P2;Temp;Humidity;BMP_temperature;BMP_pressure;BME280_temperature;BME280_humidity;BME280_pressure;Samples;Min_cycle;Max_cycle;Signal;HPM_P1;HPM_P2
2024/01/27 00:00:01;;;;;;;182.20;24.70;;;25.40;40.40;;;;;;5078658;28;20230;-72
2024/01/27 00:02:28;;;;;;;160.70;23.70;;;25.40;40.40;;;;;;5049761;28;20227;-78
2024/01/27 00:04:55;;;;;;;58.97;17.13;;;25.40;40.40;;;;;;5069267;28;20204;-73
2024/01/27 00:07:25;;;;;;;59.70;16.57;;;25.40;40.40;;;;;;5077268;28;20550;-76
2024/01/27 00:09:52;;;;;;;63.97;17.67;;;25.40;40.40;;;;;;5074045;28;20704;-76
2024/01/27 00:12:19;;;;;;;55.60;18.37;;;25.40;40.40;;;;;;5070485;28;20706;-74
2024/01/27 00:14:46;;;;;;;59.60;16.83;;;25.40;40.40;;;;;;5072619;28;20209;-81
2024/01/27 00:17:13;;;;;;;57.10;17.60;;;25.40;40.40;;;;;;5072468;28;20223;-74
2024/01/27 00:19:40;;;;;;;58.33;18.33;;;25.40;40.40;;;;;;5068873;28;20220;-77
2024/01/27 00:22:08;;;;;;;64.97;18.13;;;25.40;40.40;;;;;;5068281;28;20298;-76
2024/01/27 00:24:36;;;;;;;83.27;19.50;;;25.40;40.30;;;;;;5070859;28;20203;-74
2024/01/27 00:27:04;;;;;;;65.50;18.23;;;25.40;41.00;;;;;;5069707;28;20207;-71
2024/01/27 00:29:30;;;;;;;60.23;16.63;;;25.40;40.40;;;;;;5068840;28;20214;-80
2024/01/27 00:31:57;;;;;;;66.70;19.20;;;25.40;40.30;;;;;;5082388;28;20659;-81
2024/01/27 00:34:25;;;;;;;57.43;16.50;;;25.50;40.40;;;;;;5068280;28;20671;-72
2024/01/27 00:36:52;;;;;;;73.63;18.47;;;25.40;40.30;;;;;;5068075;28;20260;-73
2024/01/27 00:39:19;;;;;;;60.33;17.83;;;25.50;40.30;;;;;;5068072;28;20317;-77
2024/01/27 00:41:47;;;;;;;67.10;18.37;;;25.50;40.30;;;;;;5068649;28;20219;-77
2024/01/27 00:44:14;;;;;;;58.87;16.93;;;25.50;40.30;;;;;;5067952;28;20294;-72
2024/01/27 00:46:41;;;;;;;86.13;17.93;;;25.50;40.30;;;;;;5083759;28;20248;-74
2024/01/27 00:49:08;;;;;;;61.37;16.27;;;25.50;40.30;;;;;;5088460;28;20294;-74
2024/01/27 00:51:35;;;;;;;55.77;16.93;;;25.50;40.30;;;;;;5088204;28;20191;-74
2024/01/27 00:54:02;;;;;;;46.63;16.80;;;25.50;40.30;;;;;;5075916;28;20456;-74
2024/01/27 00:56:29;;;;;;;54.07;17.07;;;25.50;40.30;;;;;;5068034;28;20286;-74
2024/01/27 00:58:57;;;;;;;91.47;22.70;;;25.50;40.30;;;;;;5068793;28;20309;-77
2024/01/27 01:01:24;;;;;;;62.27;20.07;;;25.50;40.30;;;;;;5074378;28;20722;-76
2024/01/27 01:03:51;;;;;;;65.87;21.13;;;25.50;40.30;;;;;;5083123;28;20296;-75
2024/01/27 01:06:18;;;;;;;64.17;21.53;;;25.50;40.30;;;;;;5082084;28;20203;-74
2024/01/27 01:08:45;;;;;;;68.63;21.97;;;25.50;40.30;;;;;;5067861;28;20290;-75
2024/01/27 01:11:12;;;;;;;80.47;22.63;;;25.50;40.30;;;;;;5067130;28;20319;-74
2024/01/27 01:13:39;;;;;;;59.00;19.63;;;25.50;40.30;;;;;;5087739;28;20203;-75
2024/01/27 01:16:08;;;;;;;111.30;23.97;;;25.50;40.30;;;;;;5083003;28;20225;-72
2024/01/27 01:18:35;;;;;;;61.03;20.40;;;25.60;40.30;;;;;;5072335;28;20580;-74
2024/01/27 01:21:02;;;;;;;64.47;21.60;;;25.60;40.90;;;;;;5078983;28;20201;-81
2024/01/27 01:23:29;;;;;;;55.83;19.17;;;25.60;40.30;;;;;;5074663;28;20206;-79
2024/01/27 01:25:56;;;;;;;68.50;19.93;;;25.60;40.30;;;;;;5067270;28;20275;-72
2024/01/27 01:28:23;;;;;;;47.83;17.17;;;25.60;41.00;;;;;;5068780;28;20211;-76
2024/01/27 01:30:50;;;;;;;83.93;18.83;;;25.50;40.20;;;;;;5076794;28;20211;-76
2024/01/27 01:33:19;;;;;;;46.40;15.63;;;25.60;40.30;;;;;;5076899;28;20207;-73
2024/01/27 01:35:46;;;;;;;61.53;16.03;;;25.60;40.30;;;;;;5067482;28;20282;-74
2024/01/27 01:38:13;;;;;;;62.33;17.20;;;25.60;40.30;;;;;;5077301;28;20305;-73
2024/01/27 01:40:40;;;;;;;64.80;18.63;;;25.60;40.30;;;;;;5083896;28;20726;-74
2024/01/27 01:43:11;;;;;;;106.80;22.97;;;25.60;40.30;;;;;;5082380;28;20320;-76
2024/01/27 01:45:38;;;;;;;65.53;20.70;;;25.60;40.30;;;;;;5083161;28;20187;-77
2024/01/27 01:48:06;;;;;;;72.90;23.10;;;25.60;40.20;;;;;;5072337;28;20360;-72
2024/01/27 01:50:35;;;;;;;70.43;22.03;;;25.60;40.30;;;;;;5072002;28;20214;-72
2024/01/27 01:53:02;;;;;;;63.37;21.57;;;25.60;40.30;;;;;;5080633;28;20356;-69
2024/01/27 01:55:29;;;;;;;54.27;20.00;;;25.60;40.30;;;;;;5067910;28;20207;-69
2024/01/27 01:57:56;;;;;;;67.03;21.13;;;25.60;40.30;;;;;;5066858;28;20621;-74
2024/01/27 02:00:23;;;;;;;69.27;21.93;;;25.60;40.30;;;;;;5066957;28;20231;-75
2024/01/27 02:02:50;;;;;;;46.97;20.27;;;25.70;40.30;;;;;;5083612;28;20298;-70
2024/01/27 02:05:17;;;;;;;105.87;21.83;;;25.70;40.30;;;;;;5085927;28;20201;-73
2024/01/27 02:07:45;;;;;;;240.83;30.43;;;25.70;40.30;;;;;;5048561;28;20310;-74
2024/01/27 02:10:16;;;;;;;194.90;28.07;;;25.70;40.30;;;;;;5058978;28;20209;-74
2024/01/27 02:12:44;;;;;;;66.87;21.13;;;25.70;40.30;;;;;;5079238;28;20204;-71
2024/01/27 02:15:12;;;;;;;59.03;24.07;;;25.70;40.30;;;;;;5085079;28;20278;-70
2024/01/27 02:17:39;;;;;;;57.47;20.70;;;25.70;40.20;;;;;;5084953;28;20202;-71
2024/01/27 02:20:07;;;;;;;83.73;18.43;;;25.80;40.30;;;;;;5084710;28;20234;-72
2024/01/27 02:22:34;;;;;;;64.30;17.10;;;25.80;40.30;;;;;;5086115;28;20203;-73
2024/01/27 02:25:03;;;;;;;51.10;16.40;;;25.80;40.30;;;;;;5086648;28;20290;-77
2024/01/27 02:27:30;;;;;;;49.73;16.40;;;25.80;40.30;;;;;;5078924;28;20291;-73
2024/01/27 02:29:57;;;;;;;63.77;17.23;;;25.80;40.20;;;;;;5067199;28;20572;-73
2024/01/27 02:32:24;;;;;;;58.10;17.40;;;25.80;40.20;;;;;;5083663;28;20210;-74
2024/01/27 02:34:51;;;;;;;62.27;17.83;;;25.80;40.20;;;;;;5085454;28;20285;-72
2024/01/27 02:37:19;;;;;;;66.70;17.93;;;25.80;40.20;;;;;;5086927;28;20290;-74
2024/01/27 02:39:46;;;;;;;61.87;17.83;;;25.80;40.20;;;;;;5085144;28;20313;-76
2024/01/27 02:42:14;;;;;;;50.73;17.30;;;25.80;40.20;;;;;;5080677;28;20209;-73
2024/01/27 02:44:41;;;;;;;82.10;19.50;;;25.80;40.20;;;;;;5077690;28;20310;-72
2024/01/27 02:47:08;;;;;;;92.57;18.67;;;25.80;40.20;;;;;;5073228;28;20223;-73
2024/01/27 02:49:35;;;;;;;60.27;18.80;;;25.80;40.10;;;;;;5085625;28;20234;-74
2024/01/27 02:52:02;;;;;;;60.77;17.37;;;25.90;40.20;;;;;;5086871;28;20199;-73
2024/01/27 02:54:29;;;;;;;63.10;16.90;;;25.80;40.10;;;;;;5067885;28;20203;-75
2024/01/27 02:56:55;;;;;;;55.53;16.93;;;25.90;40.20;;;;;;5081938;28;20198;-73
2024/01/27 02:59:24;;;;;;;51.97;17.00;;;25.90;40.20;;;;;;5085947;28;20234;-74
2024/01/27 03:01:51;;;;;;;59.50;16.60;;;25.90;40.20;;;;;;5078672;28;20825;-70
2024/01/27 03:04:18;;;;;;;46.20;15.57;;;25.90;40.20;;;;;;5070175;28;20218;-70
2024/01/27 03:06:44;;;;;;;62.60;15.60;;;25.90;40.20;;;;;;5070809;28;20274;-70
2024/01/27 03:09:11;;;;;;;43.73;15.53;;;25.90;40.10;;;;;;5086918;28;20187;-70
2024/01/27 03:11:38;;;;;;;59.00;15.90;;;25.90;40.20;;;;;;5086907;28;20230;-69
2024/01/27 03:14:05;;;;;;;65.50;14.13;;;25.90;40.10;;;;;;5085948;28;20202;-70
2024/01/27 03:16:35;;;;;;;55.93;14.60;;;25.90;40.20;;;;;;5079281;28;20215;-71
2024/01/27 03:19:02;;;;;;;83.83;18.83;;;25.90;40.10;;;;;;5067400;28;20273;-70
2024/01/27 03:21:28;;;;;;;51.53;14.27;;;25.90;40.10;;;;;;5085933;28;20260;-70
2024/01/27 03:23:55;;;;;;;52.60;14.20;;;25.90;40.10;;;;;;5097650;28;20654;-70
2024/01/27 03:26:22;;;;;;;53.50;15.20;;;25.90;40.10;;;;;;5070058;28;20286;-70
2024/01/27 03:28:49;;;;;;;56.37;15.97;;;25.90;40.00;;;;;;5075167;28;20311;-71
2024/01/27 03:31:16;;;;;;;47.00;13.33;;;25.90;40.00;;;;;;5069750;28;20207;-71
2024/01/27 03:33:44;;;;;;;52.43;13.90;;;25.90;40.10;;;;;;5070606;28;20290;-71
2024/01/27 03:36:12;;;;;;;60.00;15.73;;;25.90;40.00;;;;;;5079438;28;20202;-70
2024/01/27 03:38:39;;;;;;;46.03;13.83;;;25.90;40.00;;;;;;5078911;28;20203;-70
2024/01/27 03:41:06;;;;;;;55.17;15.00;;;26.00;40.10;;;;;;5088973;28;20285;-71
2024/01/27 03:43:34;;;;;;;47.50;13.00;;;25.90;40.00;;;;;;5074849;28;20678;-71
2024/01/27 03:46:01;;;;;;;53.10;14.70;;;26.00;40.10;;;;;;5069543;28;20203;-70
2024/01/27 03:48:28;;;;;;;79.33;16.40;;;25.90;40.00;;;;;;5082107;28;20279;-70
2024/01/27 03:50:57;;;;;;;59.00;14.97;;;25.90;40.00;;;;;;5073979;28;20298;-71
2024/01/27 03:53:23;;;;;;;58.80;14.77;;;26.00;40.10;;;;;;5076104;28;20608;-71
2024/01/27 03:55:50;;;;;;;58.50;15.30;;;26.00;40.10;;;;;;5077566;28;20199;-70
2024/01/27 03:58:17;;;;;;;54.63;14.10;;;26.00;40.10;;;;;;5075798;28;20298;-70
2024/01/27 04:00:44;;;;;;;61.63;15.23;;;26.00;40.10;;;;;;5071970;28;20337;-70
2024/01/27 04:03:11;;;;;;;45.30;13.33;;;25.90;40.00;;;;;;5073266;28;20198;-69
2024/01/27 04:05:38;;;;;;;44.10;14.30;;;26.00;40.10;;;;;;5073931;28;20211;-70
2024/01/27 04:08:07;;;;;;;63.77;15.60;;;26.00;40.10;;;;;;5069612;28;20311;-70
2024/01/27 04:10:35;;;;;;;83.97;16.27;;;26.00;40.00;;;;;;5082655;28;20268;-70
2024/01/27 04:13:02;;;;;;;60.90;15.10;;;26.00;40.10;;;;;;5088703;28;20857;-70
2024/01/27 04:15:29;;;;;;;54.77;14.00;;;26.00;40.10;;;;;;5088331;28;20340;-73
2024/01/27 04:17:56;;;;;;;70.27;14.77;;;25.90;40.00;;;;;;5094191;28;20203;-70
2024/01/27 04:20:22;;;;;;;44.43;13.63;;;26.00;40.00;;;;;;5082711;28;20316;-70
2024/01/27 04:22:49;;;;;;;74.67;15.53;;;26.00;40.00;;;;;;5070059;28;20203;-70
2024/01/27 04:25:18;;;;;;;51.90;14.57;;;26.00;40.00;;;;;;5076266;28;20629;-70
2024/01/27 04:27:45;;;;;;;54.77;13.47;;;26.00;40.00;;;;;;5070208;28;20536;-70
2024/01/27 04:30:13;;;;;;;60.10;14.50;;;26.00;40.00;;;;;;5083175;28;20285;-71
2024/01/27 04:32:40;;;;;;;39.07;13.53;;;25.90;39.90;;;;;;5077008;28;20487;-70
2024/01/27 04:35:10;;;;;;;53.50;14.13;;;26.00;40.00;;;;;;5080768;28;20289;-70
2024/01/27 04:37:38;;;;;;;112.37;17.87;;;26.00;40.00;;;;;;5081038;28;20565;-70
2024/01/27 04:40:06;;;;;;;45.83;12.77;;;26.00;40.00;;;;;;5083579;28;20266;-70
2024/01/27 04:42:35;;;;;;;68.43;14.83;;;26.00;40.00;;;;;;5087468;28;20191;-70
2024/01/27 04:45:02;;;;;;;69.63;14.80;;;26.00;39.90;;;;;;5077536;28;20201;-70
2024/01/27 04:47:29;;;;;;;44.83;15.53;;;26.00;39.90;;;;;;5089148;28;20187;-70
2024/01/27 04:49:57;;;;;;;48.03;14.43;;;26.00;39.90;;;;;;5088822;28;20230;-71
2024/01/27 04:52:24;;;;;;;41.30;12.70;;;26.00;40.00;;;;;;5088491;28;20674;-70
2024/01/27 04:54:51;;;;;;;51.27;15.73;;;26.00;39.90;;;;;;5076649;28;20488;-70
2024/01/27 04:57:18;;;;;;;62.33;14.20;;;26.00;39.90;;;;;;5067749;28;20225;-70
2024/01/27 04:59:46;;;;;;;80.40;15.50;;;26.00;40.50;;;;;;5078724;28;20229;-70
2024/01/27 05:02:13;;;;;;;63.83;18.60;;;26.00;39.90;;;;;;5075725;28;20201;-71
2024/01/27 05:04:40;;;;;;;72.47;13.30;;;26.00;39.80;;;;;;5071959;28;20630;-75
2024/01/27 05:07:07;;;;;;;81.77;16.00;;;26.00;39.80;;;;;;5070117;28;20199;-72
2024/01/27 05:09:35;;;;;;;78.10;14.40;;;26.00;39.90;;;;;;5070556;28;20211;-72
2024/01/27 05:12:02;;;;;;;67.90;14.03;;;26.00;39.80;;;;;;5085699;28;20230;-72
2024/01/27 05:14:29;;;;;;;58.53;14.07;;;26.00;39.80;;;;;;5074928;28;20301;-72
2024/01/27 05:16:57;;;;;;;66.20;13.90;;;26.00;39.80;;;;;;5086468;28;20229;-71
2024/01/27 05:19:24;;;;;;;73.53;13.87;;;26.00;39.80;;;;;;5069939;28;20199;-74
2024/01/27 05:21:51;;;;;;;63.13;14.07;;;26.00;39.80;;;;;;5076991;28;20197;-71
2024/01/27 05:24:18;;;;;;;73.90;15.17;;;26.00;39.80;;;;;;5068419;28;20648;-72
2024/01/27 05:26:45;;;;;;;77.33;16.97;;;26.00;39.80;;;;;;5066944;28;20298;-71
2024/01/27 05:29:12;;;;;;;70.67;14.20;;;26.00;39.80;;;;;;5075662;28;20207;-73
2024/01/27 05:31:39;;;;;;;65.73;15.10;;;25.90;39.70;;;;;;5085981;28;20214;-76
2024/01/27 05:34:07;;;;;;;71.40;14.57;;;26.00;40.40;;;;;;5074801;28;20741;-70
2024/01/27 05:36:34;;;;;;;73.37;14.60;;;26.00;40.30;;;;;;5065958;28;20210;-70
2024/01/27 05:39:03;;;;;;;63.73;13.67;;;26.00;39.80;;;;;;5067947;28;20195;-70
2024/01/27 05:41:30;;;;;;;78.87;14.33;;;26.00;39.80;;;;;;5078778;28;20261;-71
2024/01/27 05:43:57;;;;;;;63.07;13.83;;;26.00;39.80;;;;;;5082089;28;20281;-73
2024/01/27 05:46:25;;;;;;;94.87;15.27;;;26.00;39.70;;;;;;5081188;28;20651;-73
2024/01/27 05:48:53;;;;;;;65.03;13.83;;;26.00;39.70;;;;;;5070979;28;20225;-72
2024/01/27 05:51:23;;;;;;;65.87;13.73;;;26.00;39.70;;;;;;5077405;28;20279;-71
2024/01/27 05:53:50;;;;;;;60.77;13.80;;;26.00;39.70;;;;;;5084275;28;20609;-71
2024/01/27 05:56:18;;;;;;;64.80;15.00;;;26.00;39.70;;;;;;5081065;28;20195;-71
2024/01/27 05:58:45;;;;;;;66.87;14.57;;;26.00;39.70;;;;;;5069549;28;20199;-73
2024/01/27 06:01:12;;;;;;;69.50;14.63;;;26.00;39.70;;;;;;5085629;28;20330;-71
2024/01/27 06:03:41;;;;;;;50.40;14.60;;;26.00;39.70;;;;;;5080759;28;20206;-72
2024/01/27 06:06:09;;;;;;;62.27;13.57;;;26.00;39.60;;;;;;5070967;28;20290;-75
2024/01/27 06:08:37;;;;;;;80.53;15.37;;;26.00;39.60;;;;;;5068580;28;20203;-71
2024/01/27 06:11:04;;;;;;;89.73;14.47;;;26.00;39.60;;;;;;5089166;28;20622;-71
2024/01/27 06:13:32;;;;;;;74.10;15.83;;;26.00;39.60;;;;;;5079974;28;20199;-71
2024/01/27 06:15:59;;;;;;;78.13;14.40;;;26.00;39.60;;;;;;5083529;28;20699;-71
2024/01/27 06:18:26;;;;;;;73.90;15.43;;;26.00;39.70;;;;;;5068902;28;20206;-70
2024/01/27 06:20:53;;;;;;;61.03;15.60;;;26.00;39.70;;;;;;5085878;28;20257;-70
2024/01/27 06:23:20;;;;;;;82.27;15.27;;;26.00;39.60;;;;;;5083017;28;20195;-72
2024/01/27 06:25:48;;;;;;;60.93;14.97;;;26.00;39.70;;;;;;5068818;28;20213;-70
2024/01/27 06:28:15;;;;;;;67.33;14.93;;;26.00;39.60;;;;;;5072180;28;20191;-71
2024/01/27 06:30:42;;;;;;;67.23;16.40;;;26.00;39.70;;;;;;5085463;28;20232;-71
2024/01/27 06:33:09;;;;;;;84.47;15.97;;;26.00;39.60;;;;;;5075273;28;20300;-70
2024/01/27 06:35:36;;;;;;;73.43;15.30;;;26.00;39.60;;;;;;5065780;28;20203;-70
2024/01/27 06:38:03;;;;;;;62.90;14.40;;;26.00;39.70;;;;;;5065721;28;20213;-70
2024/01/27 06:40:30;;;;;;;79.80;16.40;;;26.00;39.60;;;;;;5069226;28;20227;-71
2024/01/27 06:42:59;;;;;;;69.63;14.43;;;26.00;39.60;;;;;;5104642;28;20267;-70
2024/01/27 06:45:26;;;;;;;57.13;14.00;;;26.00;39.60;;;;;;5088013;28;20203;-72
2024/01/27 06:47:52;;;;;;;57.93;13.77;;;26.00;39.70;;;;;;5085342;28;20318;-71
2024/01/27 06:50:18;;;;;;;78.60;16.80;;;26.00;39.70;;;;;;5085857;28;20195;-70
2024/01/27 06:52:45;;;;;;;64.90;15.37;;;26.00;39.60;;;;;;5085938;28;20277;-70
2024/01/27 06:55:13;;;;;;;55.40;14.50;;;26.00;39.70;;;;;;5085856;28;20203;-72
2024/01/27 06:57:41;;;;;;;72.83;15.80;;;26.00;39.60;;;;;;5085089;28;20293;-71
2024/01/27 07:00:13;;;;;;;68.33;15.30;;;26.10;39.70;;;;;;5078382;28;20234;-71
2024/01/27 07:02:41;;;;;;;87.18;25.33;;;26.00;39.60;;;;;;5070285;28;20442;-74
2024/01/27 07:05:08;;;;;;;66.60;19.40;;;25.90;39.90;;;;;;5071552;28;20295;-73
2024/01/27 07:07:36;;;;;;;68.67;19.13;;;25.90;40.00;;;;;;5087302;28;20290;-73
2024/01/27 07:10:03;;;;;;;72.00;20.60;;;26.00;39.90;;;;;;5077481;28;20215;-74
2024/01/27 07:12:30;;;;;;;56.30;18.43;;;26.10;39.80;;;;;;5069514;28;20205;-73
2024/01/27 07:14:59;;;;;;;80.53;20.60;;;26.10;39.70;;;;;;5070899;28;20203;-73
2024/01/27 07:17:27;;;;;;;60.83;20.33;;;26.10;39.70;;;;;;5072990;28;20202;-73
2024/01/27 07:19:55;;;;;;;71.17;20.33;;;26.10;39.70;;;;;;5077768;28;20287;-74
2024/01/27 07:22:21;;;;;;;64.37;19.20;;;26.20;39.80;;;;;;5069155;28;20278;-73
2024/01/27 07:24:51;;;;;;;81.87;20.13;;;26.20;39.80;;;;;;5068851;28;20290;-73
2024/01/27 07:27:18;;;;;;;65.40;18.50;;;26.20;39.80;;;;;;5073743;28;20285;-73
2024/01/27 07:29:45;;;;;;;70.10;19.30;;;26.20;39.70;;;;;;5080942;28;21168;-73
2024/01/27 07:32:13;;;;;;;66.70;19.70;;;26.20;39.70;;;;;;5089107;28;20210;-73
2024/01/27 07:34:42;;;;;;;57.00;20.53;;;26.20;39.70;;;;;;5106335;28;21032;-74
2024/01/27 07:37:09;;;;;;;62.80;20.67;;;26.20;39.70;;;;;;5109655;28;20186;-74
2024/01/27 07:39:36;;;;;;;81.43;21.77;;;26.20;39.70;;;;;;5094643;28;20195;-73
2024/01/27 07:42:03;;;;;;;84.53;21.47;;;26.20;39.70;;;;;;5087669;28;20262;-75
2024/01/27 07:44:30;;;;;;;61.60;19.87;;;26.20;39.70;;;;;;5087975;28;20725;-77
2024/01/27 07:46:56;;;;;;;88.17;22.00;;;26.20;39.70;;;;;;5072580;28;20210;-69
2024/01/27 07:49:23;;;;;;;99.60;30.27;;;26.20;39.70;;;;;;5081455;28;20416;-72
2024/01/27 07:51:52;;;;;;;69.43;19.93;;;26.20;39.60;;;;;;5088675;28;20215;-71
2024/01/27 07:54:19;;;;;;;116.47;23.00;;;26.20;39.60;;;;;;5085314;28;20224;-73
2024/01/27 07:56:45;;;;;;;129.03;22.97;;;26.20;39.50;;;;;;5078506;28;20206;-73
2024/01/27 07:59:15;;;;;;;72.27;21.27;;;26.20;39.60;;;;;;5069125;28;20278;-70
2024/01/27 08:01:42;;;;;;;71.57;20.47;;;26.20;39.50;;;;;;5078258;28;20230;-76
2024/01/27 08:04:09;;;;;;;75.60;19.50;;;26.30;40.20;;;;;;5084017;28;20277;-75
2024/01/27 08:06:47;;;;;;;73.07;20.33;;;26.20;39.60;;;;;;5069451;28;20674;-72
2024/01/27 08:09:16;;;;;;;71.97;20.90;;;26.30;39.60;;;;;;5068259;28;20310;-76
2024/01/27 08:11:42;;;;;;;62.23;20.30;;;26.20;39.60;;;;;;5075264;28;20222;-74
2024/01/27 08:14:10;;;;;;;75.57;20.37;;;26.30;39.60;;;;;;5074201;28;20202;-71
2024/01/27 08:16:37;;;;;;;69.87;20.10;;;26.30;39.60;;;;;;5067507;28;20230;-71
2024/01/27 08:19:04;;;;;;;67.10;20.10;;;26.30;39.60;;;;;;5067675;28;20214;-69
2024/01/27 08:21:31;;;;;;;90.73;23.17;;;26.30;39.60;;;;;;5070825;28;20251;-69
2024/01/27 08:23:58;;;;;;;86.37;23.57;;;26.20;39.50;;;;;;5077794;28;20712;-70
2024/01/27 08:26:27;;;;;;;69.27;20.07;;;26.30;39.60;;;;;;5087751;28;20210;-69
2024/01/27 08:28:56;;;;;;;71.43;22.30;;;26.30;39.50;;;;;;5088355;28;20273;-74
2024/01/27 08:31:22;;;;;;;87.27;25.23;;;26.30;39.50;;;;;;5085988;28;20215;-70
2024/01/27 08:33:49;;;;;;;77.30;22.00;;;26.30;40.10;;;;;;5067765;28;20302;-69
2024/01/27 08:36:16;;;;;;;76.20;22.60;;;26.30;39.50;;;;;;5068017;28;20235;-71
2024/01/27 08:38:43;;;;;;;62.50;21.20;;;26.30;39.50;;;;;;5068209;28;20316;-69
2024/01/27 08:41:11;;;;;;;81.47;23.63;;;26.30;39.50;;;;;;5067674;28;20267;-70
2024/01/27 08:43:40;;;;;;;97.77;22.93;;;26.30;39.40;;;;;;5067695;28;20198;-73
2024/01/27 08:46:07;;;;;;;67.90;22.57;;;26.30;39.40;;;;;;5068562;28;20203;-69
2024/01/27 08:48:34;;;;;;;78.20;23.43;;;26.30;39.40;;;;;;5067731;28;20292;-70
2024/01/27 08:51:01;;;;;;;72.63;21.43;;;26.30;39.40;;;;;;5068473;28;20283;-69
2024/01/27 08:53:29;;;;;;;64.93;21.50;;;26.30;39.50;;;;;;5076406;28;20369;-69
2024/01/27 08:55:56;;;;;;;69.77;21.00;;;26.30;39.40;;;;;;5088027;28;20299;-69
2024/01/27 08:58:23;;;;;;;75.20;21.07;;;26.30;39.40;;;;;;5073364;28;20192;-68
2024/01/27 09:00:51;;;;;;;68.47;20.90;;;26.30;39.40;;;;;;5067559;28;20322;-72
2024/01/27 09:03:20;;;;;;;83.57;22.43;;;26.30;39.40;;;;;;5067277;28;20294;-69
2024/01/27 09:05:47;;;;;;;65.80;20.80;;;26.30;39.40;;;;;;5067474;28;20209;-69
2024/01/27 09:08:14;;;;;;;74.40;20.80;;;26.30;40.00;;;;;;5067362;28;20290;-69
2024/01/27 09:10:41;;;;;;;66.10;21.50;;;26.30;39.40;;;;;;5081970;28;20203;-70
2024/01/27 09:13:08;;;;;;;66.30;21.23;;;26.30;39.30;;;;;;5086783;28;20207;-69
2024/01/27 09:15:35;;;;;;;73.83;21.13;;;26.30;39.40;;;;;;5086891;28;20304;-69
2024/01/27 09:18:04;;;;;;;70.10;21.93;;;26.30;39.30;;;;;;5079139;28;20188;-69
2024/01/27 09:20:31;;;;;;;70.83;21.67;;;26.30;39.30;;;;;;5066877;28;20199;-70
2024/01/27 09:22:58;;;;;;;70.27;20.93;;;26.30;39.30;;;;;;5066268;28;20271;-73
2024/01/27 09:25:26;;;;;;;84.07;23.60;;;26.30;39.30;;;;;;5066720;28;20211;-70
2024/01/27 09:27:54;;;;;;;67.63;20.80;;;26.30;39.40;;;;;;5066657;28;20196;-69
2024/01/27 09:30:21;;;;;;;81.00;20.63;;;26.40;39.40;;;;;;5066619;28;20248;-69
2024/01/27 09:32:48;;;;;;;83.40;21.17;;;26.40;39.30;;;;;;5066629;28;20580;-71
2024/01/27 09:35:16;;;;;;;72.70;19.57;;;26.30;39.90;;;;;;5066564;28;20208;-69
2024/01/27 09:37:45;;;;;;;74.60;21.67;;;26.30;39.30;;;;;;5069889;28;20194;-69
2024/01/27 09:40:13;;;;;;;65.23;21.97;;;26.40;39.40;;;;;;5086575;28;20199;-69
2024/01/27 09:42:40;;;;;;;82.33;24.10;;;26.40;39.40;;;;;;5086129;28;20632;-70
2024/01/27 09:45:09;;;;;;;64.43;21.33;;;26.40;39.40;;;;;;5086821;28;20782;-69
2024/01/27 09:47:37;;;;;;;79.47;20.47;;;26.40;39.40;;;;;;5067982;28;20243;-69
2024/01/27 09:50:05;;;;;;;67.33;20.33;;;26.40;39.40;;;;;;5066201;28;20926;-69
2024/01/27 09:52:34;;;;;;;75.03;19.07;;;26.40;39.40;;;;;;5082496;28;20206;-72
2024/01/27 09:55:02;;;;;;;68.80;18.70;;;26.50;39.40;;;;;;5086430;28;20207;-69
2024/01/27 09:57:29;;;;;;;73.73;18.73;;;26.50;39.40;;;;;;5085902;28;20293;-69
2024/01/27 09:59:57;;;;;;;68.10;19.67;;;26.50;40.00;;;;;;5086241;28;20206;-71
2024/01/27 10:02:26;;;;;;;71.40;19.97;;;26.60;39.50;;;;;;5086303;28;20226;-69
2024/01/27 10:04:54;;;;;;;122.40;34.87;;;26.60;39.40;;;;;;5084582;28;20203;-70
2024/01/27 10:07:22;;;;;;;54.27;18.30;;;26.60;39.40;;;;;;5066048;28;20305;-70
2024/01/27 10:09:51;;;;;;;61.40;19.43;;;26.70;39.50;;;;;;5103808;28;20202;-69
2024/01/27 10:12:21;;;;;;;86.37;21.13;;;26.70;39.40;;;;;;5106299;28;20202;-70
2024/01/27 10:14:50;;;;;;;70.93;19.97;;;26.70;39.30;;;;;;5106027;28;20202;-70
2024/01/27 10:17:22;;;;;;;69.03;20.50;;;26.80;39.40;;;;;;5106561;28;20202;-69
2024/01/27 10:20:01;;;;;;;64.00;19.53;;;26.80;39.40;;;;;;5070887;28;20207;-70
2024/01/27 10:22:28;;;;;;;66.93;19.33;;;26.90;39.40;;;;;;5066028;28;20219;-70
2024/01/27 10:24:56;;;;;;;69.57;21.03;;;27.00;39.50;;;;;;5065729;28;20207;-70
2024/01/27 10:27:23;;;;;;;68.37;20.17;;;27.10;39.50;;;;;;5065567;28;20249;-70
2024/01/27 10:29:54;;;;;;;63.77;19.93;;;27.20;39.60;;;;;;5065378;28;20206;-70
2024/01/27 10:32:23;;;;;;;57.17;19.17;;;27.30;39.60;;;;;;5066001;28;20448;-72
2024/01/27 10:34:50;;;;;;;82.93;21.73;;;27.50;39.80;;;;;;5065354;28;20192;-70
2024/01/27 10:37:25;;;;;;;63.87;18.50;;;27.70;39.90;;;;;;5065946;28;20202;-72
2024/01/27 10:40:02;;;;;;;70.53;19.87;;;27.80;39.90;;;;;;5103413;28;20233;-70
2024/01/27 10:42:30;;;;;;;73.20;19.30;;;28.00;39.90;;;;;;5106166;28;20716;-74
2024/01/27 10:44:59;;;;;;;110.57;23.03;;;28.20;39.90;;;;;;5100813;28;20717;-70
2024/01/27 10:47:29;;;;;;;77.37;20.37;;;28.40;39.80;;;;;;5084932;28;20207;-70
2024/01/27 10:49:57;;;;;;;73.93;19.77;;;28.60;39.80;;;;;;5085274;28;20667;-73
2024/01/27 10:52:28;;;;;;;56.27;19.20;;;28.80;39.70;;;;;;5085854;28;20202;-71
2024/01/27 10:55:02;;;;;;;66.50;19.67;;;29.00;39.60;;;;;;5085302;28;20198;-70
2024/01/27 10:57:31;;;;;;;61.27;19.10;;;29.10;39.40;;;;;;5085647;28;20220;-70
2024/01/27 10:59:58;;;;;;;68.23;19.40;;;29.30;39.30;;;;;;5085425;28;20209;-69
2024/01/27 11:02:25;;;;;;;73.47;20.97;;;29.50;39.30;;;;;;5085380;28;20240;-70
2024/01/27 11:04:54;;;;;;;65.82;19.20;;;29.60;39.10;;;;;;5085711;28;20650;-70
2024/01/27 11:07:22;;;;;;;64.93;20.15;;;29.80;39.00;;;;;;5085850;28;20203;-72
2024/01/27 11:09:51;;;;;;;79.63;19.45;;;29.90;38.70;;;;;;5085065;28;20834;-70
2024/01/27 11:12:22;;;;;;;59.20;19.33;;;30.00;38.60;;;;;;5085677;28;20203;-70
2024/01/27 11:14:51;;;;;;;74.07;19.95;;;30.20;38.50;;;;;;5085327;28;20214;-70
2024/01/27 11:17:18;;;;;;;63.85;18.95;;;30.20;38.30;;;;;;5077228;28;20282;-77
2024/01/27 11:19:46;;;;;;;84.63;20.48;;;30.30;38.20;;;;;;5066056;28;20289;-80
2024/01/27 11:22:26;;;;;;;75.15;20.08;;;30.40;38.00;;;;;;5085328;28;20371;-81
2024/01/27 11:24:53;;;;;;;70.68;18.75;;;30.50;37.60;;;;;;5064627;28;20208;-77
2024/01/27 11:27:29;;;;;;;56.78;19.73;;;30.60;37.80;;;;;;5065334;28;20290;-71
2024/01/27 11:29:55;;;;;;;70.30;19.65;;;30.60;37.50;;;;;;5065056;28;20859;-81
2024/01/27 11:32:22;;;;;;;71.30;18.08;;;30.60;38.30;;;;;;5065179;28;20310;-70
2024/01/27 11:34:50;;;;;;;80.70;18.48;;;30.60;37.50;;;;;;5065129;28;20306;-69
2024/01/27 11:37:19;;;;;;;76.90;17.98;;;30.60;37.40;;;;;;5065564;28;20283;-71
2024/01/27 11:39:46;;;;;;;88.45;21.17;;;30.60;37.20;;;;;;5078771;28;20323;-72
2024/01/27 11:42:16;;;;;;;70.63;17.80;;;30.60;37.30;;;;;;5085520;28;20325;-72
2024/01/27 11:44:45;;;;;;;59.13;18.30;;;30.60;37.30;;;;;;5085745;28;20194;-80
2024/01/27 11:47:16;;;;;;;66.05;18.65;;;30.60;37.20;;;;;;5087967;28;20203;-78
2024/01/27 11:49:44;;;;;;;61.55;20.20;;;30.60;37.00;;;;;;5088855;28;20207;-77
2024/01/27 11:52:11;;;;;;;92.50;22.33;;;30.50;37.10;;;;;;5088533;28;20219;-81
2024/01/27 11:54:38;;;;;;;68.70;19.05;;;30.50;37.10;;;;;;5088786;28;20195;-78
2024/01/27 11:57:06;;;;;;;69.50;19.65;;;30.50;37.00;;;;;;5088653;28;20233;-76
2024/01/27 11:59:34;;;;;;;72.38;19.85;;;30.50;37.00;;;;;;5088848;28;20207;-77
2024/01/27 12:02:04;;;;;;;75.13;20.70;;;30.40;36.90;;;;;;5088323;28;20702;-79
2024/01/27 12:04:31;;;;;;;72.82;18.90;;;30.40;36.80;;;;;;5088549;28;20898;-77
2024/01/27 12:06:58;;;;;;;69.30;19.27;;;30.40;36.90;;;;;;5075630;28;20199;-73
2024/01/27 12:09:25;;;;;;;60.70;19.65;;;30.40;36.90;;;;;;5067927;28;20199;-80
2024/01/27 12:11:52;;;;;;;67.68;19.17;;;30.30;36.90;;;;;;5068301;28;20294;-71
2024/01/27 12:14:19;;;;;;;64.15;19.25;;;30.30;37.50;;;;;;5078605;28;20286;-78
2024/01/27 12:16:47;;;;;;;73.25;18.83;;;30.30;36.90;;;;;;5072550;28;20223;-77
2024/01/27 12:19:15;;;;;;;66.32;19.50;;;30.20;36.70;;;;;;5078847;28;20191;-73
2024/01/27 12:21:48;;;;;;;59.58;19.63;;;30.20;36.70;;;;;;5074459;28;20195;-70
2024/01/27 12:24:17;;;;;;;79.97;20.23;;;30.20;36.60;;;;;;5068178;28;20206;-70
2024/01/27 12:26:46;;;;;;;52.33;19.25;;;30.20;36.60;;;;;;5068108;28;20204;-70